sensor_id;sensor_type;location;lat;lon;timestamp;pressure;altitude;pressure_sealevel;temperature;humidity
74708;BME280;63360;50.104;8.074;2023-01-31T00:01:31;97943.13;;;1.06;100.00
74708;BME280;63360;50.104;8.074;2023-01-31T00:04:00;97948.22;;;1.18;100.00
74708;BME280;63360;50.104;8.074;2023-01-31T00:06:33;97938.09;;;1.11;100.00
74708;BME280;63360;50.104;8.074;2023-01-31T00:09:01;97942.88;;;1.08;100.00
74708;BME280;63360;50.104;8.074;2023-01-31T00:11:29;97927.06;;;1.11;100.00
74708;BME280;63360;50.104;8.074;2023-01-31T00:13:57;97925.75;;;1.08;100.00
74708;BME280;63360;50.104;8.074;2023-01-31T00:16:25;97934.09;;;1.04;100.00
74708;BME280;63360;50.104;8.074;2023-01-31T00:18:51;97941.31;;;1.07;100.00
74708;BME280;63360;50.104;8.074;2023-01-31T00:21:27;97932.53;;;1.03;100.00
74708;BME280;63360;50.104;8.074;2023-01-31T00:23:54;97932.53;;;0.91;100.00
74708;BME280;63360;50.104;8.074;2023-01-31T00:26:23;97925.53;;;0.87;100.00
74708;BME280;63360;50.104;8.074;2023-01-31T00:28:52;97940.78;;;0.93;100.00
74708;BME280;63360;50.104;8.074;2023-01-31T00:31:20;97944.47;;;0.97;100.00
74708;BME280;63360;50.104;8.074;2023-01-31T00:33:48;97948.25;;;0.83;100.00
74708;BME280;63360;50.104;8.074;2023-01-31T00:36:17;97961.16;;;0.88;100.00
74708;BME280;63360;50.104;8.074;2023-01-31T00:38:53;97944.34;;;0.81;100.00
74708;BME280;63360;50.104;8.074;2023-01-31T00:41:21;97942.91;;;0.73;100.00
74708;BME280;63360;50.104;8.074;2023-01-31T00:43:48;97945.91;;;0.70;100.00
74708;BME280;63360;50.104;8.074;2023-01-31T00:46:15;97945.91;;;0.70;100.00
74708;BME280;63360;50.104;8.074;2023-01-31T00:48:42;97954.13;;;0.72;100.00
74708;BME280;63360;50.104;8.074;2023-01-31T00:51:08;97934.34;;;0.68;100.00
74708;BME280;63360;50.104;8.074;2023-01-31T00:53:35;97942.81;;;0.80;100.00
74708;BME280;63360;50.104;8.074;2023-01-31T00:56:14;97949.16;;;0.77;100.00
74708;BME280;63360;50.104;8.074;2023-01-31T00:58:41;97946.34;;;0.67;100.00
74708;BME280;63360;50.104;8.074;2023-01-31T01:03:43;97941.00;;;0.57;100.00
74708;BME280;63360;50.104;8.074;2023-01-31T01:06:11;97960.59;;;0.63;100.00
74708;BME280;63360;50.104;8.074;2023-01-31T01:08:39;97958.84;;;0.64;100.00
74708;BME280;63360;50.104;8.074;2023-01-31T01:11:15;97952.16;;;0.63;100.00
74708;BME280;63360;50.104;8.074;2023-01-31T01:13:42;97963.94;;;0.64;100.00
74708;BME280;63360;50.104;8.074;2023-01-31T01:16:16;97962.38;;;0.63;100.00
74708;BME280;63360;50.104;8.074;2023-01-31T01:18:43;97969.38;;;0.67;100.00
74708;BME280;63360;50.104;8.074;2023-01-31T01:21:14;97973.28;;;0.70;100.00
74708;BME280;63360;50.104;8.074;2023-01-31T01:23:41;97968.94;;;0.70;100.00
74708;BME280;63360;50.104;8.074;2023-01-31T01:26:19;97969.28;;;0.62;100.00
74708;BME280;63360;50.104;8.074;2023-01-31T01:28:47;97974.63;;;0.60;100.00
74708;BME280;63360;50.104;8.074;2023-01-31T01:31:14;97964.50;;;0.66;100.00
74708;BME280;63360;50.104;8.074;2023-01-31T01:33:42;97961.72;;;0.67;100.00
74708;BME280;63360;50.104;8.074;2023-01-31T01:36:11;97973.41;;;0.75;100.00
74708;BME280;63360;50.104;8.074;2023-01-31T01:38:39;97973.06;;;0.71;100.00
74708;BME280;63360;50.104;8.074;2023-01-31T01:41:06;97984.34;;;0.82;100.00
74708;BME280;63360;50.104;8.074;2023-01-31T01:43:56;97987.09;;;0.80;100.00
74708;BME280;63360;50.104;8.074;2023-01-31T01:46:29;97987.34;;;0.79;100.00
74708;BME280;63360;50.104;8.074;2023-01-31T01:49:04;97979.75;;;0.84;100.00
74708;BME280;63360;50.104;8.074;2023-01-31T01:51:37;97974.97;;;0.76;100.00
74708;BME280;63360;50.104;8.074;2023-01-31T01:54:08;97971.63;;;0.75;100.00
74708;BME280;63360;50.104;8.074;2023-01-31T01:56:42;97980.97;;;0.81;100.00
74708;BME280;63360;50.104;8.074;2023-01-31T01:59:19;97978.06;;;0.78;100.00
74708;BME280;63360;50.104;8.074;2023-01-31T02:01:49;97971.31;;;0.72;100.00
74708;BME280;63360;50.104;8.074;2023-01-31T02:04:18;97976.19;;;0.73;100.00
74708;BME280;63360;50.104;8.074;2023-01-31T02:06:46;97962.16;;;0.64;100.00
74708;BME280;63360;50.104;8.074;2023-01-31T02:09:19;97968.72;;;0.60;100.00
74708;BME280;63360;50.104;8.074;2023-01-31T02:11:47;97978.28;;;0.65;100.00
74708;BME280;63360;50.104;8.074;2023-01-31T02:14:14;97969.06;;;0.64;100.00
74708;BME280;63360;50.104;8.074;2023-01-31T02:16:40;97969.41;;;0.55;100.00
74708;BME280;63360;50.104;8.074;2023-01-31T02:19:31;97976.16;;;0.61;100.00
74708;BME280;63360;50.104;8.074;2023-01-31T02:30:18;97965.16;;;0.49;100.00
74708;BME280;63360;50.104;8.074;2023-01-31T02:38:11;97970.59;;;0.41;100.00
74708;BME280;63360;50.104;8.074;2023-01-31T02:41:14;97962.31;;;0.28;100.00
74708;BME280;63360;50.104;8.074;2023-01-31T02:43:59;97966.97;;;0.19;100.00
74708;BME280;63360;50.104;8.074;2023-01-31T02:47:02;97958.06;;;0.10;100.00
74708;BME280;63360;50.104;8.074;2023-01-31T02:49:45;97959.06;;;0.09;100.00
74708;BME280;63360;50.104;8.074;2023-01-31T02:54:55;97968.72;;;0.07;100.00
74708;BME280;63360;50.104;8.074;2023-01-31T02:57:44;97968.34;;;-0.08;100.00
74708;BME280;63360;50.104;8.074;2023-01-31T03:00:11;97966.66;;;-0.14;100.00
74708;BME280;63360;50.104;8.074;2023-01-31T03:02:38;97950.47;;;-0.26;100.00
74708;BME280;63360;50.104;8.074;2023-01-31T03:05:05;97962.75;;;-0.17;100.00
74708;BME280;63360;50.104;8.074;2023-01-31T03:07:34;97961.13;;;-0.29;100.00
74708;BME280;63360;50.104;8.074;2023-01-31T03:10:15;97963.06;;;-0.25;100.00
74708;BME280;63360;50.104;8.074;2023-01-31T03:15:39;97962.69;;;-0.28;100.00
74708;BME280;63360;50.104;8.074;2023-01-31T03:18:29;97975.03;;;-0.25;100.00
74708;BME280;63360;50.104;8.074;2023-01-31T03:21:09;97980.94;;;-0.25;100.00
74708;BME280;63360;50.104;8.074;2023-01-31T03:23:39;97999.34;;;-0.16;100.00
74708;BME280;63360;50.104;8.074;2023-01-31T03:26:08;97999.34;;;-0.16;100.00
74708;BME280;63360;50.104;8.074;2023-01-31T03:28:37;97998.00;;;-0.19;100.00
74708;BME280;63360;50.104;8.074;2023-01-31T03:31:18;97995.72;;;-0.27;100.00
74708;BME280;63360;50.104;8.074;2023-01-31T03:34:00;97999.03;;;-0.26;100.00
74708;BME280;63360;50.104;8.074;2023-01-31T03:44:34;98008.72;;;-0.28;100.00
74708;BME280;63360;50.104;8.074;2023-01-31T03:47:16;97988.00;;;-0.38;100.00
74708;BME280;63360;50.104;8.074;2023-01-31T03:49:45;98011.91;;;-0.33;100.00
74708;BME280;63360;50.104;8.074;2023-01-31T03:52:18;98017.59;;;-0.31;100.00
74708;BME280;63360;50.104;8.074;2023-01-31T03:54:54;98005.88;;;-0.38;100.00
74708;BME280;63360;50.104;8.074;2023-01-31T03:57:28;98005.53;;;-0.42;100.00
74708;BME280;63360;50.104;8.074;2023-01-31T03:59:58;98009.84;;;-0.42;100.00
74708;BME280;63360;50.104;8.074;2023-01-31T04:02:38;98000.97;;;-0.40;100.00
74708;BME280;63360;50.104;8.074;2023-01-31T04:05:14;98015.88;;;-0.37;100.00
74708;BME280;63360;50.104;8.074;2023-01-31T04:07:43;98000.97;;;-0.40;100.00
74708;BME280;63360;50.104;8.074;2023-01-31T04:10:17;98001.75;;;-0.39;100.00
74708;BME280;63360;50.104;8.074;2023-01-31T04:12:45;98004.53;;;-0.41;100.00
74708;BME280;63360;50.104;8.074;2023-01-31T04:15:13;98011.00;;;-0.38;100.00
74708;BME280;63360;50.104;8.074;2023-01-31T04:17:39;97989.50;;;-0.49;100.00
74708;BME280;63360;50.104;8.074;2023-01-31T04:20:06;97996.94;;;-0.47;100.00
74708;BME280;63360;50.104;8.074;2023-01-31T04:22:33;97997.03;;;-0.54;100.00
74708;BME280;63360;50.104;8.074;2023-01-31T04:24:59;97988.44;;;-0.59;100.00
74708;BME280;63360;50.104;8.074;2023-01-31T04:27:26;97991.13;;;-0.54;100.00
74708;BME280;63360;50.104;8.074;2023-01-31T04:29:53;97981.19;;;-0.63;100.00
74708;BME280;63360;50.104;8.074;2023-01-31T04:32:19;97995.94;;;-0.46;100.00
74708;BME280;63360;50.104;8.074;2023-01-31T04:34:45;97975.50;;;-0.65;100.00
74708;BME280;63360;50.104;8.074;2023-01-31T04:37:12;97990.06;;;-0.65;100.00
74708;BME280;63360;50.104;8.074;2023-01-31T04:39:38;97988.34;;;-0.71;100.00
74708;BME280;63360;50.104;8.074;2023-01-31T04:42:04;97978.78;;;-0.76;100.00
74708;BME280;63360;50.104;8.074;2023-01-31T04:44:31;97965.72;;;-0.86;100.00
74708;BME280;63360;50.104;8.074;2023-01-31T04:46:58;97966.50;;;-0.85;100.00
74708;BME280;63360;50.104;8.074;2023-01-31T04:49:25;97979.97;;;-0.78;100.00
74708;BME280;63360;50.104;8.074;2023-01-31T04:51:52;97962.00;;;-0.90;100.00
74708;BME280;63360;50.104;8.074;2023-01-31T04:54:18;97957.13;;;-0.91;100.00
74708;BME280;63360;50.104;8.074;2023-01-31T04:56:45;97960.38;;;-0.84;100.00
74708;BME280;63360;50.104;8.074;2023-01-31T04:59:11;97967.13;;;-0.90;100.00
74708;BME280;63360;50.104;8.074;2023-01-31T05:01:37;97976.91;;;-0.87;100.00
74708;BME280;63360;50.104;8.074;2023-01-31T05:04:04;97962.44;;;-0.93;100.00
74708;BME280;63360;50.104;8.074;2023-01-31T05:06:31;97971.03;;;-0.87;100.00
74708;BME280;63360;50.104;8.074;2023-01-31T05:08:58;97955.41;;;-0.97;100.00
74708;BME280;63360;50.104;8.074;2023-01-31T05:11:27;97960.66;;;-0.92;100.00
74708;BME280;63360;50.104;8.074;2023-01-31T05:13:54;97966.03;;;-1.00;100.00
74708;BME280;63360;50.104;8.074;2023-01-31T05:16:20;97965.63;;;-0.97;100.00
74708;BME280;63360;50.104;8.074;2023-01-31T05:18:47;97961.59;;;-1.05;100.00
74708;BME280;63360;50.104;8.074;2023-01-31T05:21:16;97954.44;;;-0.96;100.00
74708;BME280;63360;50.104;8.074;2023-01-31T05:23:42;97966.97;;;-0.95;100.00
74708;BME280;63360;50.104;8.074;2023-01-31T05:26:08;97968.75;;;-0.95;100.00
74708;BME280;63360;50.104;8.074;2023-01-31T05:28:35;97968.31;;;-1.10;100.00
74708;BME280;63360;50.104;8.074;2023-01-31T05:31:05;97977.47;;;-1.03;100.00
74708;BME280;63360;50.104;8.074;2023-01-31T05:33:33;97966.31;;;-1.08;100.00
74708;BME280;63360;50.104;8.074;2023-01-31T05:36:00;97948.69;;;-1.10;100.00
74708;BME280;63360;50.104;8.074;2023-01-31T05:38:27;97951.56;;;-1.06;100.00
74708;BME280;63360;50.104;8.074;2023-01-31T05:40:54;97950.06;;;-1.14;100.00
74708;BME280;63360;50.104;8.074;2023-01-31T05:43:20;97963.34;;;-1.05;100.00
74708;BME280;63360;50.104;8.074;2023-01-31T05:45:47;97973.38;;;-1.04;100.00
74708;BME280;63360;50.104;8.074;2023-01-31T05:48:14;97959.22;;;-1.06;100.00
74708;BME280;63360;50.104;8.074;2023-01-31T05:50:41;97961.72;;;-1.00;100.00
74708;BME280;63360;50.104;8.074;2023-01-31T05:53:07;97970.06;;;-1.11;100.00
74708;BME280;63360;50.104;8.074;2023-01-31T05:55:34;97956.97;;;-1.14;100.00
74708;BME280;63360;50.104;8.074;2023-01-31T05:58:00;97960.88;;;-1.12;100.00
74708;BME280;63360;50.104;8.074;2023-01-31T06:00:27;97948.88;;;-1.11;100.00
74708;BME280;63360;50.104;8.074;2023-01-31T06:02:57;97953.69;;;-1.03;100.00
74708;BME280;63360;50.104;8.074;2023-01-31T06:05:25;97960.78;;;-1.05;100.00
74708;BME280;63360;50.104;8.074;2023-01-31T06:07:52;97958.66;;;-1.08;100.00
74708;BME280;63360;50.104;8.074;2023-01-31T06:10:18;97953.13;;;-1.05;100.00
74708;BME280;63360;50.104;8.074;2023-01-31T06:12:46;97962.63;;;-1.12;100.00
74708;BME280;63360;50.104;8.074;2023-01-31T06:15:13;97952.06;;;-1.16;100.00
74708;BME280;63360;50.104;8.074;2023-01-31T06:17:39;97946.81;;;-1.21;100.00
74708;BME280;63360;50.104;8.074;2023-01-31T06:20:06;97950.56;;;-1.24;100.00
74708;BME280;63360;50.104;8.074;2023-01-31T06:22:32;97941.59;;;-1.33;100.00
74708;BME280;63360;50.104;8.074;2023-01-31T06:24:59;97945.47;;;-1.24;100.00
74708;BME280;63360;50.104;8.074;2023-01-31T06:27:25;97952.56;;;-1.26;100.00
74708;BME280;63360;50.104;8.074;2023-01-31T06:29:52;97944.41;;;-1.41;100.00
74708;BME280;63360;50.104;8.074;2023-01-31T06:32:18;97962.16;;;-1.28;100.00
74708;BME280;63360;50.104;8.074;2023-01-31T06:34:45;97947.31;;;-1.31;100.00
74708;BME280;63360;50.104;8.074;2023-01-31T06:37:11;97943.53;;;-1.28;100.00
74708;BME280;63360;50.104;8.074;2023-01-31T06:39:37;97962.34;;;-1.23;100.00
74708;BME280;63360;50.104;8.074;2023-01-31T06:42:04;97969.75;;;-1.14;100.00
74708;BME280;63360;50.104;8.074;2023-01-31T06:44:30;97977.44;;;-1.21;100.00
74708;BME280;63360;50.104;8.074;2023-01-31T06:47:00;97958.00;;;-1.22;100.00
74708;BME280;63360;50.104;8.074;2023-01-31T06:49:26;97976.38;;;-1.13;100.00
74708;BME280;63360;50.104;8.074;2023-01-31T06:51:53;97967.44;;;-1.23;100.00
74708;BME280;63360;50.104;8.074;2023-01-31T06:54:19;97965.66;;;-1.22;100.00
74708;BME280;63360;50.104;8.074;2023-01-31T06:56:46;97952.41;;;-1.31;100.00
74708;BME280;63360;50.104;8.074;2023-01-31T06:59:12;97972.34;;;-1.21;100.00
74708;BME280;63360;50.104;8.074;2023-01-31T07:01:40;97954.31;;;-1.26;100.00
74708;BME280;63360;50.104;8.074;2023-01-31T07:04:06;97971.34;;;-1.20;100.00
74708;BME280;63360;50.104;8.074;2023-01-31T07:06:32;97976.28;;;-1.25;100.00
74708;BME280;63360;50.104;8.074;2023-01-31T07:08:59;97981.44;;;-1.32;100.00
74708;BME280;63360;50.104;8.074;2023-01-31T07:11:25;97967.88;;;-1.26;100.00
74708;BME280;63360;50.104;8.074;2023-01-31T07:13:52;97970.56;;;-1.20;100.00
74708;BME280;63360;50.104;8.074;2023-01-31T07:16:18;97972.22;;;-1.33;100.00
74708;BME280;63360;50.104;8.074;2023-01-31T07:18:45;97968.13;;;-1.34;100.00
74708;BME280;63360;50.104;8.074;2023-01-31T07:21:11;97974.75;;;-1.26;100.00
74708;BME280;63360;50.104;8.074;2023-01-31T07:23:37;97979.84;;;-1.26;100.00
74708;BME280;63360;50.104;8.074;2023-01-31T07:26:05;97974.75;;;-1.26;100.00
74708;BME280;63360;50.104;8.074;2023-01-31T07:28:31;97971.16;;;-1.25;100.00
74708;BME280;63360;50.104;8.074;2023-01-31T07:31:08;97980.34;;;-1.17;100.00
74708;BME280;63360;50.104;8.074;2023-01-31T07:33:37;97983.91;;;-1.00;100.00
74708;BME280;63360;50.104;8.074;2023-01-31T07:36:05;98000.41;;;-0.96;100.00
74708;BME280;63360;50.104;8.074;2023-01-31T07:38:33;97990.31;;;-0.91;100.00
74708;BME280;63360;50.104;8.074;2023-01-31T07:41:01;97978.13;;;-0.89;100.00
74708;BME280;63360;50.104;8.074;2023-01-31T07:43:29;97994.94;;;-0.82;100.00
74708;BME280;63360;50.104;8.074;2023-01-31T07:45:56;97985.56;;;-0.88;100.00
74708;BME280;63360;50.104;8.074;2023-01-31T07:48:23;97964.06;;;-0.98;100.00
74708;BME280;63360;50.104;8.074;2023-01-31T07:50:57;97974.59;;;-0.88;100.00
74708;BME280;63360;50.104;8.074;2023-01-31T07:53:26;97972.38;;;-0.85;100.00
74708;BME280;63360;50.104;8.074;2023-01-31T07:55:53;97961.25;;;-0.72;100.00
74708;BME280;63360;50.104;8.074;2023-01-31T07:58:19;97968.84;;;-0.66;100.00
74708;BME280;63360;50.104;8.074;2023-01-31T08:00:46;97965.06;;;-0.63;100.00
74708;BME280;63360;50.104;8.074;2023-01-31T08:03:31;97958.13;;;-0.56;100.00
74708;BME280;63360;50.104;8.074;2023-01-31T08:06:06;97964.13;;;-0.50;100.00
74708;BME280;63360;50.104;8.074;2023-01-31T08:08:34;97961.50;;;-0.44;100.00
74708;BME280;63360;50.104;8.074;2023-01-31T08:11:01;97960.84;;;-0.39;100.00
74708;BME280;63360;50.104;8.074;2023-01-31T08:13:27;97944.59;;;-0.45;100.00
74708;BME280;63360;50.104;8.074;2023-01-31T08:15:54;97967.94;;;-0.23;100.00
74708;BME280;63360;50.104;8.074;2023-01-31T08:18:21;97964.41;;;-0.22;100.00
74708;BME280;63360;50.104;8.074;2023-01-31T08:20:48;97968.38;;;-0.26;100.00
74708;BME280;63360;50.104;8.074;2023-01-31T08:23:14;97985.97;;;-0.18;100.00
74708;BME280;63360;50.104;8.074;2023-01-31T08:25:41;97979.06;;;-0.18;100.00
74708;BME280;63360;50.104;8.074;2023-01-31T08:28:07;97975.44;;;-0.10;100.00
74708;BME280;63360;50.104;8.074;2023-01-31T08:30:38;97973.91;;;0.00;100.00
74708;BME280;63360;50.104;8.074;2023-01-31T08:33:04;97974.41;;;0.09;100.00
74708;BME280;63360;50.104;8.074;2023-01-31T08:35:31;97987.66;;;0.18;100.00
74708;BME280;63360;50.104;8.074;2023-01-31T08:37:57;97968.63;;;0.14;100.00
74708;BME280;63360;50.104;8.074;2023-01-31T08:40:41;97979.75;;;0.19;100.00
74708;BME280;63360;50.104;8.074;2023-01-31T08:43:08;97969.91;;;0.34;100.00
74708;BME280;63360;50.104;8.074;2023-01-31T08:45:35;97979.91;;;0.36;100.00
74708;BME280;63360;50.104;8.074;2023-01-31T08:48:02;97966.34;;;0.35;100.00
74708;BME280;63360;50.104;8.074;2023-01-31T08:50:30;97959.91;;;0.56;100.00
74708;BME280;63360;50.104;8.074;2023-01-31T08:53:02;97939.78;;;0.48;100.00
74708;BME280;63360;50.104;8.074;2023-01-31T08:55:30;97926.66;;;0.68;100.00
74708;BME280;63360;50.104;8.074;2023-01-31T08:57:57;97946.38;;;0.79;100.00
74708;BME280;63360;50.104;8.074;2023-01-31T09:00:26;97917.75;;;0.70;100.00
74708;BME280;63360;50.104;8.074;2023-01-31T09:02:54;97939.03;;;0.82;100.00
74708;BME280;63360;50.104;8.074;2023-01-31T09:05:22;97931.22;;;0.89;100.00
74708;BME280;63360;50.104;8.074;2023-01-31T09:07:49;97951.59;;;0.95;100.00
74708;BME280;63360;50.104;8.074;2023-01-31T09:10:17;97960.38;;;0.99;100.00
74708;BME280;63360;50.104;8.074;2023-01-31T09:12:43;97959.50;;;1.05;100.00
74708;BME280;63360;50.104;8.074;2023-01-31T09:15:10;97962.38;;;1.09;100.00
74708;BME280;63360;50.104;8.074;2023-01-31T09:17:37;97974.19;;;1.21;100.00
74708;BME280;63360;50.104;8.074;2023-01-31T09:20:05;97969.06;;;1.21;100.00
74708;BME280;63360;50.104;8.074;2023-01-31T09:22:33;97972.72;;;1.26;100.00
74708;BME280;63360;50.104;8.074;2023-01-31T09:25:00;97974.63;;;1.18;100.00
74708;BME280;63360;50.104;8.074;2023-01-31T09:27:27;97986.84;;;1.28;100.00
74708;BME280;63360;50.104;8.074;2023-01-31T09:29:54;97977.19;;;1.30;100.00
74708;BME280;63360;50.104;8.074;2023-01-31T09:32:20;97976.84;;;1.27;100.00
74708;BME280;63360;50.104;8.074;2023-01-31T09:34:47;97974.72;;;1.23;100.00
74708;BME280;63360;50.104;8.074;2023-01-31T09:37:14;97974.94;;;1.34;100.00
74708;BME280;63360;50.104;8.074;2023-01-31T09:39:41;97970.25;;;1.31;100.00
74708;BME280;63360;50.104;8.074;2023-01-31T09:42:41;97954.88;;;1.31;100.00
74708;BME280;63360;50.104;8.074;2023-01-31T09:45:14;97946.19;;;1.32;100.00
74708;BME280;63360;50.104;8.074;2023-01-31T09:47:49;97950.00;;;1.29;100.00
74708;BME280;63360;50.104;8.074;2023-01-31T09:50:42;97945.06;;;1.39;100.00
74708;BME280;63360;50.104;8.074;2023-01-31T09:53:13;97956.72;;;1.47;100.00
74708;BME280;63360;50.104;8.074;2023-01-31T09:55:53;97944.16;;;1.45;100.00
74708;BME280;63360;50.104;8.074;2023-01-31T10:01:11;97960.56;;;1.72;100.00
74708;BME280;63360;50.104;8.074;2023-01-31T10:06:24;97937.59;;;1.77;100.00
74708;BME280;63360;50.104;8.074;2023-01-31T10:09:06;97932.63;;;1.88;100.00
74708;BME280;63360;50.104;8.074;2023-01-31T10:11:40;97936.06;;;1.93;100.00
74708;BME280;63360;50.104;8.074;2023-01-31T10:14:59;97912.34;;;2.03;100.00
74708;BME280;63360;50.104;8.074;2023-01-31T10:19:59;97937.34;;;2.07;100.00
74708;BME280;63360;50.104;8.074;2023-01-31T10:22:51;97947.91;;;2.11;100.00
74708;BME280;63360;50.104;8.074;2023-01-31T10:28:02;97934.94;;;2.17;100.00
74708;BME280;63360;50.104;8.074;2023-01-31T10:30:40;97944.09;;;2.13;100.00
74708;BME280;63360;50.104;8.074;2023-01-31T10:33:34;97953.06;;;2.27;100.00
74708;BME280;63360;50.104;8.074;2023-01-31T10:36:10;97940.00;;;2.29;100.00
74708;BME280;63360;50.104;8.074;2023-01-31T10:38:52;97922.88;;;2.34;100.00
74708;BME280;63360;50.104;8.074;2023-01-31T10:41:38;97912.06;;;2.32;100.00
74708;BME280;63360;50.104;8.074;2023-01-31T10:44:15;97901.91;;;2.21;100.00
74708;BME280;63360;50.104;8.074;2023-01-31T10:46:43;97899.25;;;2.32;100.00
74708;BME280;63360;50.104;8.074;2023-01-31T10:49:09;97892.72;;;2.25;100.00
74708;BME280;63360;50.104;8.074;2023-01-31T10:52:04;97903.38;;;2.33;100.00
74708;BME280;63360;50.104;8.074;2023-01-31T10:54:44;97905.00;;;2.39;100.00
74708;BME280;63360;50.104;8.074;2023-01-31T10:57:15;97904.44;;;2.37;100.00
74708;BME280;63360;50.104;8.074;2023-01-31T10:59:45;97888.25;;;2.37;100.00
74708;BME280;63360;50.104;8.074;2023-01-31T11:02:19;97887.25;;;2.38;100.00
74708;BME280;63360;50.104;8.074;2023-01-31T11:04:49;97866.56;;;2.44;100.00
74708;BME280;63360;50.104;8.074;2023-01-31T11:07:17;97875.81;;;2.45;100.00
74708;BME280;63360;50.104;8.074;2023-01-31T11:09:48;97871.38;;;2.41;100.00
74708;BME280;63360;50.104;8.074;2023-01-31T11:12:20;97854.19;;;2.41;100.00
74708;BME280;63360;50.104;8.074;2023-01-31T11:15:13;97847.03;;;2.43;100.00
74708;BME280;63360;50.104;8.074;2023-01-31T11:17:41;97847.81;;;2.44;100.00
74708;BME280;63360;50.104;8.074;2023-01-31T11:20:21;97845.41;;;2.37;100.00
74708;BME280;63360;50.104;8.074;2023-01-31T11:22:50;97828.00;;;2.39;100.00
74708;BME280;63360;50.104;8.074;2023-01-31T11:25:19;97823.25;;;2.31;100.00
74708;BME280;63360;50.104;8.074;2023-01-31T11:27:48;97830.25;;;2.36;100.00
74708;BME280;63360;50.104;8.074;2023-01-31T11:32:48;97824.31;;;2.35;100.00
74708;BME280;63360;50.104;8.074;2023-01-31T11:40:20;97791.34;;;2.44;100.00
74708;BME280;63360;50.104;8.074;2023-01-31T11:43:02;97798.78;;;2.45;100.00
74708;BME280;63360;50.104;8.074;2023-01-31T11:45:31;97798.31;;;2.49;100.00
74708;BME280;63360;50.104;8.074;2023-01-31T11:48:26;97789.41;;;2.56;100.00
74708;BME280;63360;50.104;8.074;2023-01-31T11:50:55;97789.72;;;2.60;100.00
74708;BME280;63360;50.104;8.074;2023-01-31T11:53:46;97785.53;;;2.54;100.00
74708;BME280;63360;50.104;8.074;2023-01-31T11:56:17;97773.13;;;2.45;100.00
74708;BME280;63360;50.104;8.074;2023-01-31T11:58:48;97765.53;;;2.56;100.00
74708;BME280;63360;50.104;8.074;2023-01-31T12:01:19;97766.63;;;2.60;100.00
74708;BME280;63360;50.104;8.074;2023-01-31T12:06:35;97776.09;;;2.59;100.00
74708;BME280;63360;50.104;8.074;2023-01-31T12:09:18;97792.19;;;2.50;100.00
74708;BME280;63360;50.104;8.074;2023-01-31T12:11:59;97790.88;;;2.47;100.00
74708;BME280;63360;50.104;8.074;2023-01-31T12:14:41;97758.38;;;2.36;100.00
74708;BME280;63360;50.104;8.074;2023-01-31T12:17:15;97746.25;;;2.53;100.00
74708;BME280;63360;50.104;8.074;2023-01-31T12:22:21;97737.94;;;2.46;100.00
74708;BME280;63360;50.104;8.074;2023-01-31T12:28:30;97738.25;;;2.50;100.00
74708;BME280;63360;50.104;8.074;2023-01-31T12:31:47;97736.22;;;2.52;100.00
74708;BME280;63360;50.104;8.074;2023-01-31T12:37:03;97731.34;;;2.50;100.00
74708;BME280;63360;50.104;8.074;2023-01-31T12:42:58;97725.53;;;2.60;100.00
74708;BME280;63360;50.104;8.074;2023-01-31T12:54:00;97690.25;;;2.77;100.00
74708;BME280;63360;50.104;8.074;2023-01-31T13:02:10;97718.03;;;2.80;100.00
74708;BME280;63360;50.104;8.074;2023-01-31T13:04:54;97712.19;;;2.84;100.00
74708;BME280;63360;50.104;8.074;2023-01-31T13:07:29;97709.59;;;2.79;100.00
74708;BME280;63360;50.104;8.074;2023-01-31T13:10:02;97706.44;;;2.77;100.00
74708;BME280;63360;50.104;8.074;2023-01-31T13:12:32;97691.19;;;2.66;100.00
74708;BME280;63360;50.104;8.074;2023-01-31T13:18:01;97669.56;;;2.62;100.00
74708;BME280;63360;50.104;8.074;2023-01-31T13:20:41;97674.81;;;2.72;100.00
74708;BME280;63360;50.104;8.074;2023-01-31T13:23:13;97674.66;;;2.83;100.00
74708;BME280;63360;50.104;8.074;2023-01-31T13:26:04;97675.44;;;2.84;100.00
74708;BME280;63360;50.104;8.074;2023-01-31T13:28:43;97671.03;;;2.79;100.00
74708;BME280;63360;50.104;8.074;2023-01-31T13:31:22;97656.38;;;2.80;100.00
74708;BME280;63360;50.104;8.074;2023-01-31T13:36:42;97662.16;;;2.92;100.00
74708;BME280;63360;50.104;8.074;2023-01-31T13:39:34;97677.59;;;2.92;100.00
74708;BME280;63360;50.104;8.074;2023-01-31T13:42:03;97652.13;;;2.90;100.00
74708;BME280;63360;50.104;8.074;2023-01-31T13:44:30;97659.78;;;2.85;100.00
74708;BME280;63360;50.104;8.074;2023-01-31T13:49:43;97667.31;;;2.92;100.00
74708;BME280;63360;50.104;8.074;2023-01-31T13:54:45;97663.47;;;2.94;100.00
74708;BME280;63360;50.104;8.074;2023-01-31T13:57:27;97649.09;;;2.98;100.00
74708;BME280;63360;50.104;8.074;2023-01-31T14:00:04;97640.09;;;2.96;100.00
74708;BME280;63360;50.104;8.074;2023-01-31T14:02:32;97656.59;;;3.00;100.00
74708;BME280;63360;50.104;8.074;2023-01-31T14:13:46;97663.19;;;2.91;100.00
74708;BME280;63360;50.104;8.074;2023-01-31T14:16:37;97663.66;;;2.88;100.00
74708;BME280;63360;50.104;8.074;2023-01-31T14:22:38;97659.59;;;2.92;100.00
74708;BME280;63360;50.104;8.074;2023-01-31T14:33:17;97670.94;;;2.96;100.00
74708;BME280;63360;50.104;8.074;2023-01-31T14:36:06;97660.09;;;2.89;100.00
74708;BME280;63360;50.104;8.074;2023-01-31T14:44:46;97662.25;;;3.02;100.00
74708;BME280;63360;50.104;8.074;2023-01-31T14:47:33;97671.75;;;3.01;100.00
74708;BME280;63360;50.104;8.074;2023-01-31T14:50:20;97658.19;;;3.06;100.00
74708;BME280;63360;50.104;8.074;2023-01-31T14:52:58;97669.03;;;3.13;100.00
74708;BME280;63360;50.104;8.074;2023-01-31T14:58:12;97649.88;;;2.99;100.00
74708;BME280;63360;50.104;8.074;2023-01-31T15:00:47;97643.16;;;2.93;100.00
74708;BME280;63360;50.104;8.074;2023-01-31T15:03:30;97665.34;;;3.04;100.00
74708;BME280;63360;50.104;8.074;2023-01-31T15:06:15;97666.16;;;3.10;100.00
74708;BME280;63360;50.104;8.074;2023-01-31T15:08:48;97656.41;;;3.12;100.00
74708;BME280;63360;50.104;8.074;2023-01-31T15:14:36;97669.06;;;3.18;100.00
74708;BME280;63360;50.104;8.074;2023-01-31T15:17:29;97660.13;;;3.26;100.00
74708;BME280;63360;50.104;8.074;2023-01-31T15:20:17;97670.38;;;3.21;100.00